sensor_id;sensor_type;location;lat;lon;timestamp;pressure;altitude;pressure_sealevel;temperature;humidity
61488;BME280;47351;53.326;-6.298;2023-01-29T00:01:31;102785.78;;;5.48;95.58
61488;BME280;47351;53.326;-6.298;2023-01-29T00:04:22;102780.23;;;5.45;95.56
61488;BME280;47351;53.326;-6.298;2023-01-29T00:07:13;102771.30;;;5.43;95.48
61488;BME280;47351;53.326;-6.298;2023-01-29T00:10:05;102764.45;;;5.42;95.36
61488;BME280;47351;53.326;-6.298;2023-01-29T00:12:55;102763.98;;;5.41;95.27
61488;BME280;47351;53.326;-6.298;2023-01-29T00:15:53;102761.71;;;5.40;95.27
61488;BME280;47351;53.326;-6.298;2023-01-29T00:18:44;102762.17;;;5.42;95.36
61488;BME280;47351;53.326;-6.298;2023-01-29T00:21:35;102764.20;;;5.44;95.37
61488;BME280;47351;53.326;-6.298;2023-01-29T00:24:25;102769.48;;;5.47;95.46
61488;BME280;47351;53.326;-6.298;2023-01-29T00:27:16;102767.38;;;5.51;95.42
61488;BME280;47351;53.326;-6.298;2023-01-29T00:30:07;102762.80;;;5.54;95.26
61488;BME280;47351;53.326;-6.298;2023-01-29T00:33:00;102765.73;;;5.55;95.05
61488;BME280;47351;53.326;-6.298;2023-01-29T00:35:50;102767.98;;;5.56;94.89
61488;BME280;47351;53.326;-6.298;2023-01-29T00:38:41;102774.04;;;5.56;94.63
61488;BME280;47351;53.326;-6.298;2023-01-29T00:41:31;102775.34;;;5.55;94.54
61488;BME280;47351;53.326;-6.298;2023-01-29T00:44:39;102775.92;;;5.53;94.55
61488;BME280;47351;53.326;-6.298;2023-01-29T00:47:48;102774.17;;;5.53;94.61
61488;BME280;47351;53.326;-6.298;2023-01-29T00:50:39;102775.26;;;5.53;94.66
61488;BME280;47351;53.326;-6.298;2023-01-29T00:53:30;102777.57;;;5.53;94.82
61488;BME280;47351;53.326;-6.298;2023-01-29T00:56:20;102774.88;;;5.53;94.82
61488;BME280;47351;53.326;-6.298;2023-01-29T00:59:11;102770.44;;;5.53;94.76
61488;BME280;47351;53.326;-6.298;2023-01-29T01:02:02;102765.27;;;5.54;94.92
61488;BME280;47351;53.326;-6.298;2023-01-29T01:05:11;102763.81;;;5.55;95.04
61488;BME280;47351;53.326;-6.298;2023-01-29T01:08:06;102752.43;;;5.56;95.06
61488;BME280;47351;53.326;-6.298;2023-01-29T01:11:17;102747.61;;;5.56;94.95
61488;BME280;47351;53.326;-6.298;2023-01-29T01:14:09;102740.17;;;5.56;94.92
61488;BME280;47351;53.326;-6.298;2023-01-29T01:16:59;102739.78;;;5.57;95.12
61488;BME280;47351;53.326;-6.298;2023-01-29T01:19:50;102745.79;;;5.58;95.13
61488;BME280;47351;53.326;-6.298;2023-01-29T01:22:40;102749.25;;;5.56;94.90
61488;BME280;47351;53.326;-6.298;2023-01-29T01:25:31;102745.55;;;5.52;94.57
61488;BME280;47351;53.326;-6.298;2023-01-29T01:28:22;102742.57;;;5.48;94.34
61488;BME280;47351;53.326;-6.298;2023-01-29T01:31:12;102739.20;;;5.44;94.18
61488;BME280;47351;53.326;-6.298;2023-01-29T01:34:03;102731.02;;;5.41;94.04
61488;BME280;47351;53.326;-6.298;2023-01-29T01:36:54;102725.64;;;5.39;93.90
61488;BME280;47351;53.326;-6.298;2023-01-29T01:39:45;102723.34;;;5.39;93.84
61488;BME280;47351;53.326;-6.298;2023-01-29T01:42:36;102720.85;;;5.39;93.84
61488;BME280;47351;53.326;-6.298;2023-01-29T01:45:29;102716.20;;;5.40;93.85
61488;BME280;47351;53.326;-6.298;2023-01-29T01:48:20;102716.30;;;5.42;93.83
61488;BME280;47351;53.326;-6.298;2023-01-29T01:51:11;102711.60;;;5.44;93.81
61488;BME280;47351;53.326;-6.298;2023-01-29T01:54:04;102708.36;;;5.44;93.93
61488;BME280;47351;53.326;-6.298;2023-01-29T01:56:57;102704.45;;;5.45;93.96
61488;BME280;47351;53.326;-6.298;2023-01-29T01:59:58;102707.59;;;5.46;94.01
61488;BME280;47351;53.326;-6.298;2023-01-29T02:03:04;102707.70;;;5.44;93.99
61488;BME280;47351;53.326;-6.298;2023-01-29T02:06:13;102716.55;;;5.40;94.04
61488;BME280;47351;53.326;-6.298;2023-01-29T02:09:21;102716.09;;;5.35;94.10
61488;BME280;47351;53.326;-6.298;2023-01-29T02:12:25;102714.27;;;5.32;94.33
61488;BME280;47351;53.326;-6.298;2023-01-29T02:15:19;102714.86;;;5.31;94.39
61488;BME280;47351;53.326;-6.298;2023-01-29T02:18:10;102717.08;;;5.29;94.47
61488;BME280;47351;53.326;-6.298;2023-01-29T02:21:05;102721.79;;;5.27;94.60
61488;BME280;47351;53.326;-6.298;2023-01-29T02:27:06;102711.50;;;5.24;94.90
61488;BME280;47351;53.326;-6.298;2023-01-29T02:30:00;102704.18;;;5.22;95.01
61488;BME280;47351;53.326;-6.298;2023-01-29T02:32:57;102698.83;;;5.19;95.01
61488;BME280;47351;53.326;-6.298;2023-01-29T02:35:52;102694.39;;;5.16;95.10
61488;BME280;47351;53.326;-6.298;2023-01-29T02:38:46;102690.80;;;5.13;95.12
61488;BME280;47351;53.326;-6.298;2023-01-29T02:41:41;102682.21;;;5.11;95.20
61488;BME280;47351;53.326;-6.298;2023-01-29T02:44:36;102676.52;;;5.12;95.28
61488;BME280;47351;53.326;-6.298;2023-01-29T02:47:29;102667.67;;;5.12;95.33
61488;BME280;47351;53.326;-6.298;2023-01-29T02:50:25;102661.04;;;5.13;95.50
61488;BME280;47351;53.326;-6.298;2023-01-29T02:53:19;102654.96;;;5.15;95.57
61488;BME280;47351;53.326;-6.298;2023-01-29T02:56:18;102649.24;;;5.16;95.52
61488;BME280;47351;53.326;-6.298;2023-01-29T02:59:30;102652.22;;;5.17;95.58
61488;BME280;47351;53.326;-6.298;2023-01-29T03:02:22;102650.36;;;5.15;95.53
61488;BME280;47351;53.326;-6.298;2023-01-29T03:05:17;102645.31;;;5.13;95.63
61488;BME280;47351;53.326;-6.298;2023-01-29T03:08:13;102638.02;;;5.10;95.59
61488;BME280;47351;53.326;-6.298;2023-01-29T03:11:05;102636.73;;;5.07;95.50
61488;BME280;47351;53.326;-6.298;2023-01-29T03:13:58;102640.83;;;5.03;95.47
61488;BME280;47351;53.326;-6.298;2023-01-29T03:16:52;102635.38;;;4.99;95.53
61488;BME280;47351;53.326;-6.298;2023-01-29T03:19:45;102633.20;;;4.96;95.74
61488;BME280;47351;53.326;-6.298;2023-01-29T03:22:44;102634.12;;;4.92;95.69
61488;BME280;47351;53.326;-6.298;2023-01-29T03:25:38;102631.23;;;4.89;95.80
61488;BME280;47351;53.326;-6.298;2023-01-29T03:28:50;102630.88;;;4.86;95.98
61488;BME280;47351;53.326;-6.298;2023-01-29T03:31:59;102627.77;;;4.84;95.98
61488;BME280;47351;53.326;-6.298;2023-01-29T03:34:59;102627.34;;;4.82;95.98
61488;BME280;47351;53.326;-6.298;2023-01-29T03:37:54;102623.54;;;4.80;95.82
61488;BME280;47351;53.326;-6.298;2023-01-29T03:40:46;102622.22;;;4.78;95.80
61488;BME280;47351;53.326;-6.298;2023-01-29T03:43:38;102623.63;;;4.78;95.78
61488;BME280;47351;53.326;-6.298;2023-01-29T03:46:37;102620.44;;;4.78;95.75
61488;BME280;47351;53.326;-6.298;2023-01-29T03:49:31;102612.77;;;4.80;95.64
61488;BME280;47351;53.326;-6.298;2023-01-29T03:52:30;102605.23;;;4.82;95.54
61488;BME280;47351;53.326;-6.298;2023-01-29T03:55:28;102598.76;;;4.84;95.49
61488;BME280;47351;53.326;-6.298;2023-01-29T03:58:24;102595.48;;;4.86;95.17
61488;BME280;47351;53.326;-6.298;2023-01-29T04:01:18;102591.02;;;4.87;95.05
61488;BME280;47351;53.326;-6.298;2023-01-29T04:04:12;102584.66;;;4.87;94.83
61488;BME280;47351;53.326;-6.298;2023-01-29T04:07:05;102574.88;;;4.84;94.57
61488;BME280;47351;53.326;-6.298;2023-01-29T04:09:59;102566.94;;;4.80;94.19
61488;BME280;47351;53.326;-6.298;2023-01-29T04:12:53;102565.35;;;4.76;94.06
61488;BME280;47351;53.326;-6.298;2023-01-29T04:15:45;102562.09;;;4.74;93.97
61488;BME280;47351;53.326;-6.298;2023-01-29T04:18:38;102558.92;;;4.74;93.85
61488;BME280;47351;53.326;-6.298;2023-01-29T04:21:31;102553.92;;;4.75;93.77
61488;BME280;47351;53.326;-6.298;2023-01-29T04:24:23;102551.05;;;4.76;93.54
61488;BME280;47351;53.326;-6.298;2023-01-29T04:27:18;102549.79;;;4.77;93.23
61488;BME280;47351;53.326;-6.298;2023-01-29T04:30:47;102543.09;;;4.76;92.77
61488;BME280;47351;53.326;-6.298;2023-01-29T04:33:41;102541.80;;;4.73;92.55
61488;BME280;47351;53.326;-6.298;2023-01-29T04:36:35;102537.52;;;4.70;92.26
61488;BME280;47351;53.326;-6.298;2023-01-29T04:39:30;102537.13;;;4.68;92.13
61488;BME280;47351;53.326;-6.298;2023-01-29T04:42:24;102535.80;;;4.65;91.92
61488;BME280;47351;53.326;-6.298;2023-01-29T04:45:19;102537.52;;;4.63;91.74
61488;BME280;47351;53.326;-6.298;2023-01-29T04:48:17;102536.49;;;4.62;91.70
61488;BME280;47351;53.326;-6.298;2023-01-29T04:51:09;102526.86;;;4.60;91.55
61488;BME280;47351;53.326;-6.298;2023-01-29T04:54:03;102521.48;;;4.58;91.42
61488;BME280;47351;53.326;-6.298;2023-01-29T04:56:58;102519.20;;;4.55;91.31
61488;BME280;47351;53.326;-6.298;2023-01-29T04:59:52;102519.55;;;4.51;91.23
61488;BME280;47351;53.326;-6.298;2023-01-29T05:02:47;102521.16;;;4.47;91.23
61488;BME280;47351;53.326;-6.298;2023-01-29T05:05:38;102523.98;;;4.44;91.24
61488;BME280;47351;53.326;-6.298;2023-01-29T05:08:31;102524.05;;;4.42;91.22
61488;BME280;47351;53.326;-6.298;2023-01-29T05:11:22;102525.15;;;4.41;91.29
61488;BME280;47351;53.326;-6.298;2023-01-29T05:14:14;102524.63;;;4.41;91.39
61488;BME280;47351;53.326;-6.298;2023-01-29T05:17:07;102526.73;;;4.41;91.37
61488;BME280;47351;53.326;-6.298;2023-01-29T05:19:59;102525.63;;;4.42;91.29
61488;BME280;47351;53.326;-6.298;2023-01-29T05:22:50;102516.02;;;4.43;91.34
61488;BME280;47351;53.326;-6.298;2023-01-29T05:25:40;102511.19;;;4.45;91.31
61488;BME280;47351;53.326;-6.298;2023-01-29T05:28:31;102508.78;;;4.47;91.30
61488;BME280;47351;53.326;-6.298;2023-01-29T05:31:21;102503.86;;;4.50;91.33
61488;BME280;47351;53.326;-6.298;2023-01-29T05:34:12;102496.77;;;4.54;91.37
61488;BME280;47351;53.326;-6.298;2023-01-29T05:37:03;102495.66;;;4.58;91.28
61488;BME280;47351;53.326;-6.298;2023-01-29T05:39:55;102491.73;;;4.63;91.29
61488;BME280;47351;53.326;-6.298;2023-01-29T05:42:46;102496.84;;;4.67;91.30
61488;BME280;47351;53.326;-6.298;2023-01-29T05:45:36;102492.95;;;4.70;91.33
61488;BME280;47351;53.326;-6.298;2023-01-29T05:48:27;102491.90;;;4.74;91.41
61488;BME280;47351;53.326;-6.298;2023-01-29T05:51:20;102493.55;;;4.76;91.37
61488;BME280;47351;53.326;-6.298;2023-01-29T05:54:11;102490.43;;;4.78;91.39
61488;BME280;47351;53.326;-6.298;2023-01-29T05:57:02;102484.71;;;4.79;91.39
61488;BME280;47351;53.326;-6.298;2023-01-29T05:59:54;102482.58;;;4.80;91.50
61488;BME280;47351;53.326;-6.298;2023-01-29T06:02:44;102481.50;;;4.80;91.57
61488;BME280;47351;53.326;-6.298;2023-01-29T06:05:37;102484.84;;;4.80;91.78
61488;BME280;47351;53.326;-6.298;2023-01-29T06:08:28;102480.04;;;4.81;91.86
61488;BME280;47351;53.326;-6.298;2023-01-29T06:11:18;102484.12;;;4.80;91.92
61488;BME280;47351;53.326;-6.298;2023-01-29T06:14:11;102472.91;;;4.78;91.96
61488;BME280;47351;53.326;-6.298;2023-01-29T06:17:02;102470.17;;;4.77;92.02
61488;BME280;47351;53.326;-6.298;2023-01-29T06:19:54;102471.06;;;4.77;92.08
61488;BME280;47351;53.326;-6.298;2023-01-29T06:22:45;102469.09;;;4.77;92.14
61488;BME280;47351;53.326;-6.298;2023-01-29T06:25:35;102471.88;;;4.78;92.21
61488;BME280;47351;53.326;-6.298;2023-01-29T06:28:26;102468.67;;;4.78;92.34
61488;BME280;47351;53.326;-6.298;2023-01-29T06:31:17;102469.17;;;4.79;92.44
61488;BME280;47351;53.326;-6.298;2023-01-29T06:34:27;102465.88;;;4.78;92.43
61488;BME280;47351;53.326;-6.298;2023-01-29T06:37:18;102468.20;;;4.77;92.48
61488;BME280;47351;53.326;-6.298;2023-01-29T06:40:09;102465.94;;;4.76;92.58
61488;BME280;47351;53.326;-6.298;2023-01-29T06:43:00;102460.12;;;4.76;92.68
61488;BME280;47351;53.326;-6.298;2023-01-29T06:45:51;102461.14;;;4.77;92.76
61488;BME280;47351;53.326;-6.298;2023-01-29T06:48:42;102460.92;;;4.78;92.80
61488;BME280;47351;53.326;-6.298;2023-01-29T06:51:33;102459.77;;;4.79;92.95
61488;BME280;47351;53.326;-6.298;2023-01-29T06:54:24;102457.62;;;4.80;92.99
61488;BME280;47351;53.326;-6.298;2023-01-29T06:57:14;102455.27;;;4.81;93.16
61488;BME280;47351;53.326;-6.298;2023-01-29T07:00:06;102456.83;;;4.82;93.26
61488;BME280;47351;53.326;-6.298;2023-01-29T07:02:58;102458.70;;;4.83;93.32
61488;BME280;47351;53.326;-6.298;2023-01-29T07:05:55;102455.57;;;4.86;93.46
61488;BME280;47351;53.326;-6.298;2023-01-29T07:08:45;102454.58;;;4.87;93.61
61488;BME280;47351;53.326;-6.298;2023-01-29T07:11:36;102449.71;;;4.89;93.73
61488;BME280;47351;53.326;-6.298;2023-01-29T07:14:26;102448.73;;;4.91;93.86
61488;BME280;47351;53.326;-6.298;2023-01-29T07:17:17;102445.47;;;4.93;93.94
61488;BME280;47351;53.326;-6.298;2023-01-29T07:20:09;102440.94;;;4.95;94.10
61488;BME280;47351;53.326;-6.298;2023-01-29T07:23:00;102435.88;;;4.97;94.12
61488;BME280;47351;53.326;-6.298;2023-01-29T07:25:51;102433.33;;;4.98;94.32
61488;BME280;47351;53.326;-6.298;2023-01-29T07:28:41;102428.49;;;4.99;94.41
61488;BME280;47351;53.326;-6.298;2023-01-29T07:31:31;102428.59;;;5.01;94.52
61488;BME280;47351;53.326;-6.298;2023-01-29T07:34:22;102424.61;;;5.02;94.76
61488;BME280;47351;53.326;-6.298;2023-01-29T07:37:12;102421.86;;;5.04;94.72
61488;BME280;47351;53.326;-6.298;2023-01-29T07:40:03;102422.90;;;5.05;94.78
61488;BME280;47351;53.326;-6.298;2023-01-29T07:42:59;102423.13;;;5.04;94.78
61488;BME280;47351;53.326;-6.298;2023-01-29T07:45:50;102421.56;;;5.03;94.77
61488;BME280;47351;53.326;-6.298;2023-01-29T07:48:40;102421.52;;;5.04;94.85
61488;BME280;47351;53.326;-6.298;2023-01-29T07:51:34;102411.87;;;5.06;94.91
61488;BME280;47351;53.326;-6.298;2023-01-29T07:54:25;102407.79;;;5.09;95.02
61488;BME280;47351;53.326;-6.298;2023-01-29T07:57:15;102405.47;;;5.13;95.15
61488;BME280;47351;53.326;-6.298;2023-01-29T08:00:07;102399.48;;;5.16;95.13
61488;BME280;47351;53.326;-6.298;2023-01-29T08:03:04;102396.56;;;5.18;95.18
61488;BME280;47351;53.326;-6.298;2023-01-29T08:05:57;102399.72;;;5.22;95.20
61488;BME280;47351;53.326;-6.298;2023-01-29T08:08:48;102395.67;;;5.24;95.20
61488;BME280;47351;53.326;-6.298;2023-01-29T08:11:40;102388.56;;;5.28;95.14
61488;BME280;47351;53.326;-6.298;2023-01-29T08:14:33;102388.35;;;5.32;95.22
61488;BME280;47351;53.326;-6.298;2023-01-29T08:17:23;102392.40;;;5.36;95.18
61488;BME280;47351;53.326;-6.298;2023-01-29T08:20:14;102389.13;;;5.37;95.08
61488;BME280;47351;53.326;-6.298;2023-01-29T08:23:05;102388.28;;;5.37;94.99
61488;BME280;47351;53.326;-6.298;2023-01-29T08:25:56;102393.10;;;5.36;94.94
61488;BME280;47351;53.326;-6.298;2023-01-29T08:28:46;102395.94;;;5.35;94.75
61488;BME280;47351;53.326;-6.298;2023-01-29T08:31:37;102403.71;;;5.36;94.85
61488;BME280;47351;53.326;-6.298;2023-01-29T08:34:27;102406.59;;;5.39;95.03
61488;BME280;47351;53.326;-6.298;2023-01-29T08:37:18;102403.92;;;5.42;95.12
61488;BME280;47351;53.326;-6.298;2023-01-29T08:40:09;102398.80;;;5.45;95.09
61488;BME280;47351;53.326;-6.298;2023-01-29T08:43:02;102402.54;;;5.48;95.10
61488;BME280;47351;53.326;-6.298;2023-01-29T08:45:55;102405.91;;;5.51;95.06
61488;BME280;47351;53.326;-6.298;2023-01-29T08:48:46;102410.65;;;5.55;95.02
61488;BME280;47351;53.326;-6.298;2023-01-29T08:51:36;102405.84;;;5.59;95.10
61488;BME280;47351;53.326;-6.298;2023-01-29T08:54:27;102409.11;;;5.64;95.05
61488;BME280;47351;53.326;-6.298;2023-01-29T08:57:17;102405.86;;;5.68;94.89
61488;BME280;47351;53.326;-6.298;2023-01-29T09:00:09;102405.67;;;5.71;94.82
61488;BME280;47351;53.326;-6.298;2023-01-29T09:03:00;102399.55;;;5.73;94.80
61488;BME280;47351;53.326;-6.298;2023-01-29T09:05:51;102395.36;;;5.75;94.88
61488;BME280;47351;53.326;-6.298;2023-01-29T09:08:43;102393.58;;;5.79;94.98
61488;BME280;47351;53.326;-6.298;2023-01-29T09:11:34;102396.67;;;5.84;95.00
61488;BME280;47351;53.326;-6.298;2023-01-29T09:14:26;102395.94;;;5.90;95.09
61488;BME280;47351;53.326;-6.298;2023-01-29T09:17:17;102396.89;;;5.99;95.12
61488;BME280;47351;53.326;-6.298;2023-01-29T09:20:10;102397.60;;;6.09;95.10
61488;BME280;47351;53.326;-6.298;2023-01-29T09:23:03;102397.78;;;6.15;94.93
61488;BME280;47351;53.326;-6.298;2023-01-29T09:25:54;102391.24;;;6.20;94.79
61488;BME280;47351;53.326;-6.298;2023-01-29T09:28:44;102394.73;;;6.27;94.61
61488;BME280;47351;53.326;-6.298;2023-01-29T09:31:35;102400.45;;;6.33;94.42
61488;BME280;47351;53.326;-6.298;2023-01-29T09:34:26;102402.77;;;6.42;94.09
61488;BME280;47351;53.326;-6.298;2023-01-29T09:37:16;102404.65;;;6.46;93.78
61488;BME280;47351;53.326;-6.298;2023-01-29T09:40:10;102405.45;;;6.50;93.79
61488;BME280;47351;53.326;-6.298;2023-01-29T09:43:14;102402.83;;;6.56;93.93
61488;BME280;47351;53.326;-6.298;2023-01-29T09:46:06;102402.06;;;6.60;93.92
61488;BME280;47351;53.326;-6.298;2023-01-29T09:49:05;102400.29;;;6.63;93.89
61488;BME280;47351;53.326;-6.298;2023-01-29T09:51:59;102404.62;;;6.70;93.87
61488;BME280;47351;53.326;-6.298;2023-01-29T09:54:53;102406.45;;;6.81;93.50
61488;BME280;47351;53.326;-6.298;2023-01-29T09:57:48;102407.40;;;6.86;93.32
61488;BME280;47351;53.326;-6.298;2023-01-29T10:00:41;102411.73;;;6.91;93.41
61488;BME280;47351;53.326;-6.298;2023-01-29T10:03:38;102406.25;;;6.90;93.22
61488;BME280;47351;53.326;-6.298;2023-01-29T10:06:38;102404.52;;;6.87;93.25
61488;BME280;47351;53.326;-6.298;2023-01-29T10:09:40;102405.65;;;6.80;93.17
61488;BME280;47351;53.326;-6.298;2023-01-29T10:12:41;102405.00;;;6.73;93.16
61488;BME280;47351;53.326;-6.298;2023-01-29T10:15:41;102406.17;;;6.71;93.20
61488;BME280;47351;53.326;-6.298;2023-01-29T10:21:58;102395.94;;;6.70;93.23
61488;BME280;47351;53.326;-6.298;2023-01-29T10:24:51;102396.55;;;6.72;93.18
61488;BME280;47351;53.326;-6.298;2023-01-29T10:27:44;102393.19;;;6.75;93.12
61488;BME280;47351;53.326;-6.298;2023-01-29T10:30:37;102391.73;;;6.84;92.97
61488;BME280;47351;53.326;-6.298;2023-01-29T10:33:35;102386.98;;;6.92;93.01
61488;BME280;47351;53.326;-6.298;2023-01-29T10:36:43;102385.29;;;7.03;92.94
61488;BME280;47351;53.326;-6.298;2023-01-29T10:39:35;102383.08;;;7.07;92.85
61488;BME280;47351;53.326;-6.298;2023-01-29T10:42:29;102377.20;;;7.10;92.89
61488;BME280;47351;53.326;-6.298;2023-01-29T10:45:25;102372.68;;;7.14;92.81
61488;BME280;47351;53.326;-6.298;2023-01-29T10:48:36;102366.64;;;7.16;92.82
61488;BME280;47351;53.326;-6.298;2023-01-29T10:51:34;102361.14;;;7.23;92.68
61488;BME280;47351;53.326;-6.298;2023-01-29T10:54:40;102352.70;;;7.33;92.77
61488;BME280;47351;53.326;-6.298;2023-01-29T10:57:38;102345.98;;;7.43;92.69
61488;BME280;47351;53.326;-6.298;2023-01-29T11:00:35;102347.65;;;7.51;92.41
61488;BME280;47351;53.326;-6.298;2023-01-29T11:03:31;102340.46;;;7.55;92.50
61488;BME280;47351;53.326;-6.298;2023-01-29T11:06:22;102342.23;;;7.58;92.25
61488;BME280;47351;53.326;-6.298;2023-01-29T11:09:16;102341.07;;;7.59;92.29
61488;BME280;47351;53.326;-6.298;2023-01-29T11:12:10;102338.05;;;7.62;92.31
61488;BME280;47351;53.326;-6.298;2023-01-29T11:15:04;102339.41;;;7.60;92.39
61488;BME280;47351;53.326;-6.298;2023-01-29T11:18:04;102334.83;;;7.59;92.44
61488;BME280;47351;53.326;-6.298;2023-01-29T11:21:00;102329.06;;;7.55;92.55
61488;BME280;47351;53.326;-6.298;2023-01-29T11:24:05;102319.56;;;7.54;92.69
61488;BME280;47351;53.326;-6.298;2023-01-29T11:26:57;102314.79;;;7.56;92.83
61488;BME280;47351;53.326;-6.298;2023-01-29T11:29:48;102309.31;;;7.58;92.85
61488;BME280;47351;53.326;-6.298;2023-01-29T11:32:41;102299.13;;;7.62;92.85
61488;BME280;47351;53.326;-6.298;2023-01-29T11:35:32;102295.19;;;7.65;92.83
61488;BME280;47351;53.326;-6.298;2023-01-29T11:38:25;102293.84;;;7.67;92.81
61488;BME280;47351;53.326;-6.298;2023-01-29T11:41:15;102290.17;;;7.68;92.83
61488;BME280;47351;53.326;-6.298;2023-01-29T11:44:20;102285.98;;;7.73;92.83
61488;BME280;47351;53.326;-6.298;2023-01-29T11:47:15;102284.96;;;7.80;92.75
61488;BME280;47351;53.326;-6.298;2023-01-29T11:50:16;102279.73;;;7.89;92.52
61488;BME280;47351;53.326;-6.298;2023-01-29T11:53:18;102274.83;;;8.01;92.42
61488;BME280;47351;53.326;-6.298;2023-01-29T11:56:21;102267.80;;;8.16;92.15
61488;BME280;47351;53.326;-6.298;2023-01-29T11:59:21;102251.52;;;8.28;91.88
61488;BME280;47351;53.326;-6.298;2023-01-29T12:02:21;102236.03;;;8.44;91.32
61488;BME280;47351;53.326;-6.298;2023-01-29T12:05:15;102225.66;;;8.57;91.17
61488;BME280;47351;53.326;-6.298;2023-01-29T12:08:13;102220.83;;;8.70;91.30
61488;BME280;47351;53.326;-6.298;2023-01-29T12:11:09;102216.45;;;8.84;91.11
61488;BME280;47351;53.326;-6.298;2023-01-29T12:14:04;102213.00;;;9.02;90.80
61488;BME280;47351;53.326;-6.298;2023-01-29T12:16:57;102208.02;;;9.12;90.53
61488;BME280;47351;53.326;-6.298;2023-01-29T12:19:50;102200.89;;;9.24;90.19
61488;BME280;47351;53.326;-6.298;2023-01-29T12:22:44;102192.67;;;9.32;89.78
61488;BME280;47351;53.326;-6.298;2023-01-29T12:25:39;102179.25;;;9.33;89.43
61488;BME280;47351;53.326;-6.298;2023-01-29T12:28:41;102165.15;;;9.33;89.31
61488;BME280;47351;53.326;-6.298;2023-01-29T12:31:35;102154.16;;;9.42;89.28
61488;BME280;47351;53.326;-6.298;2023-01-29T12:34:34;102146.67;;;9.63;88.81
61488;BME280;47351;53.326;-6.298;2023-01-29T12:37:36;102141.61;;;9.96;88.05
61488;BME280;47351;53.326;-6.298;2023-01-29T12:40:29;102134.94;;;10.36;86.59
61488;BME280;47351;53.326;-6.298;2023-01-29T12:43:26;102128.15;;;10.56;85.34
61488;BME280;47351;53.326;-6.298;2023-01-29T12:46:21;102122.86;;;10.75;84.81
61488;BME280;47351;53.326;-6.298;2023-01-29T12:49:15;102121.89;;;11.11;84.12
61488;BME280;47351;53.326;-6.298;2023-01-29T12:52:10;102121.02;;;11.41;82.97
61488;BME280;47351;53.326;-6.298;2023-01-29T12:55:05;102109.41;;;11.55;81.76
61488;BME280;47351;53.326;-6.298;2023-01-29T12:58:04;102103.61;;;11.71;81.67
61488;BME280;47351;53.326;-6.298;2023-01-29T13:01:00;102110.21;;;11.97;81.25
61488;BME280;47351;53.326;-6.298;2023-01-29T13:03:57;102101.52;;;12.26;80.12
61488;BME280;47351;53.326;-6.298;2023-01-29T13:06:52;102091.05;;;12.53;79.76
61488;BME280;47351;53.326;-6.298;2023-01-29T13:09:49;102080.46;;;12.82;79.49
61488;BME280;47351;53.326;-6.298;2023-01-29T13:12:47;102073.84;;;12.93;78.86
61488;BME280;47351;53.326;-6.298;2023-01-29T13:15:41;102061.25;;;13.37;76.75
61488;BME280;47351;53.326;-6.298;2023-01-29T13:21:40;102050.89;;;14.19;74.35
61488;BME280;47351;53.326;-6.298;2023-01-29T13:24:32;102033.67;;;14.65;73.13
61488;BME280;47351;53.326;-6.298;2023-01-29T13:27:28;102030.89;;;14.87;71.97
61488;BME280;47351;53.326;-6.298;2023-01-29T13:30:29;102027.55;;;15.08;70.01
61488;BME280;47351;53.326;-6.298;2023-01-29T13:33:22;102015.79;;;15.09;69.36
61488;BME280;47351;53.326;-6.298;2023-01-29T13:36:17;102005.91;;;15.26;68.82
61488;BME280;47351;53.326;-6.298;2023-01-29T13:39:15;102001.33;;;15.38;68.17
61488;BME280;47351;53.326;-6.298;2023-01-29T13:42:15;101999.84;;;15.27;67.86
61488;BME280;47351;53.326;-6.298;2023-01-29T13:45:07;102008.79;;;14.66;68.21
61488;BME280;47351;53.326;-6.298;2023-01-29T13:48:06;102010.29;;;14.25;68.95
61488;BME280;47351;53.326;-6.298;2023-01-29T13:51:00;102004.49;;;13.87;69.80
61488;BME280;47351;53.326;-6.298;2023-01-29T13:53:53;101991.27;;;13.69;70.65
61488;BME280;47351;53.326;-6.298;2023-01-29T13:56:55;101982.43;;;14.01;70.36
61488;BME280;47351;53.326;-6.298;2023-01-29T13:59:50;101978.95;;;14.22;69.87
61488;BME280;47351;53.326;-6.298;2023-01-29T14:02:41;101973.31;;;13.77;70.26
61488;BME280;47351;53.326;-6.298;2023-01-29T14:05:41;101962.18;;;13.30;71.53
61488;BME280;47351;53.326;-6.298;2023-01-29T14:08:40;101965.19;;;12.88;72.41
61488;BME280;47351;53.326;-6.298;2023-01-29T14:11:39;101964.41;;;12.58;73.08
61488;BME280;47351;53.326;-6.298;2023-01-29T14:15:00;101955.81;;;12.34;73.82
61488;BME280;47351;53.326;-6.298;2023-01-29T14:21:03;101923.19;;;12.62;73.34
61488;BME280;47351;53.326;-6.298;2023-01-29T14:23:54;101909.41;;;12.87;72.56
61488;BME280;47351;53.326;-6.298;2023-01-29T14:26:46;101896.20;;;13.15;71.67
61488;BME280;47351;53.326;-6.298;2023-01-29T14:29:37;101892.84;;;13.18;70.97
61488;BME280;47351;53.326;-6.298;2023-01-29T14:32:30;101879.85;;;13.12;71.07
61488;BME280;47351;53.326;-6.298;2023-01-29T14:35:21;101872.42;;;12.74;72.07
61488;BME280;47351;53.326;-6.298;2023-01-29T14:38:13;101868.95;;;12.35;72.93
61488;BME280;47351;53.326;-6.298;2023-01-29T14:41:06;101867.46;;;12.04;73.45
61488;BME280;47351;53.326;-6.298;2023-01-29T14:47:09;101868.75;;;11.55;75.02
61488;BME280;47351;53.326;-6.298;2023-01-29T14:53:12;101880.31;;;11.19;76.31
61488;BME280;47351;53.326;-6.298;2023-01-29T14:56:09;101879.43;;;10.96;76.97
61488;BME280;47351;53.326;-6.298;2023-01-29T14:59:03;101880.63;;;10.72;77.73
61488;BME280;47351;53.326;-6.298;2023-01-29T15:02:03;101884.42;;;10.55;78.45
61488;BME280;47351;53.326;-6.298;2023-01-29T15:04:55;101888.02;;;10.42;79.20
61488;BME280;47351;53.326;-6.298;2023-01-29T15:07:49;101894.51;;;10.30;79.83
61488;BME280;47351;53.326;-6.298;2023-01-29T15:10:42;101900.58;;;10.21;80.39
61488;BME280;47351;53.326;-6.298;2023-01-29T15:13:36;101905.50;;;10.15;80.89
61488;BME280;47351;53.326;-6.298;2023-01-29T15:16:33;101899.08;;;10.09;81.19
61488;BME280;47351;53.326;-6.298;2023-01-29T15:19:25;101882.69;;;10.05;81.49
61488;BME280;47351;53.326;-6.298;2023-01-29T15:22:18;101891.57;;;10.05;81.73
61488;BME280;47351;53.326;-6.298;2023-01-29T15:25:12;101874.54;;;10.06;81.88
61488;BME280;47351;53.326;-6.298;2023-01-29T15:28:04;101877.27;;;10.14;81.89